CYOC

Details ICAO CYOC (YOC)
Name OLD CROW
Region Canada
Timezone America/Whitehorse (UTC-7.0)
Plans Departing 0
Arriving 4
Stats Elevation 824 ft / 251 m (AMSL)
Location 67.569443° -139.839440°
Runways 1
Magnetic Variation 20.119° E
Sunrise 2018-05-23 10:28:01 UTC / 2018-05-23 03:28:01 Local
Sunset 2018-05-24 08:07:07 UTC / 2018-05-24 01:07:07 Local
Advertisement - Login to hide

Runways

ID Width Length Bearing (true) Bearing (mag) Surface Threshold Offset Overrun Length
03 100 ft / 30 m 4,970 ft / 1,515 m 60.66° 40.54° Gravel 300 ft / 91 m 0 ft / 0 m
21 100 ft / 30 m 4,970 ft / 1,515 m 240.69° 220.57° Gravel 200 ft / 61 m 0 ft / 0 m

Map

Weather


0- 5 10 15 20 25 30 35+ Temperature / ° C

Clouds and Precipitation
Forecast for 2018-05-23 12:00 UTC. Updated 2 hours ago

Ground ~20,000 ft ~40,000 ft Winds

METAR

CYOC 231300Z 06008KT 2 1/2SM -SN BKN014 OVC026 00/M01 A2975 RMK SN3ST2SC3 SN WET CLIMAT 9.4/0.3/TR CM/TR MWE/41997 SLP091

TAF

Not found

Frequencies

Unicom 122.10 MHz MANDATORY FREQ
Warning: Do not use this data for real-world aviation or navigation. No guarantee of current accuracy is given.